createdAt,value
2023-10-07T00:02:18.864Z,8.45
2023-10-07T00:04:46.891Z,8.68
2023-10-07T00:07:16.334Z,10.88
2023-10-07T00:09:51.631Z,7.97
2023-10-07T00:12:20.572Z,12.18
2023-10-07T00:14:48.499Z,10.52
2023-10-07T00:17:19.644Z,8.27
2023-10-07T00:19:49.193Z,10.30
2023-10-07T00:22:20.897Z,8.50
2023-10-07T00:24:50.199Z,8.63
2023-10-07T00:27:39.228Z,8.20
2023-10-07T00:30:14.674Z,10.90
2023-10-07T00:32:43.161Z,9.60
2023-10-07T00:35:12.833Z,8.85
2023-10-07T00:37:45.282Z,8.77
2023-10-07T00:40:16.123Z,8.98
2023-10-07T00:42:46.471Z,10.98
2023-10-07T00:45:17.852Z,8.55
2023-10-07T00:47:51.164Z,10.65
2023-10-07T00:50:19.320Z,10.18
2023-10-07T00:52:56.019Z,8.93
2023-10-07T00:55:38.663Z,8.43
2023-10-07T00:58:09.273Z,8.88
2023-10-07T01:00:40.237Z,11.35
2023-10-07T01:03:18.477Z,9.20
2023-10-07T01:06:02.356Z,8.13
2023-10-07T01:08:48.411Z,10.73
2023-10-07T01:11:19.590Z,11.20
2023-10-07T01:13:58.146Z,8.38
2023-10-07T01:16:47.980Z,11.52
2023-10-07T01:19:19.667Z,11.07
2023-10-07T01:22:12.967Z,9.90
2023-10-07T01:24:40.792Z,14.52
2023-10-07T01:27:31.105Z,9.23
2023-10-07T01:30:03.856Z,9.88
2023-10-07T01:32:35.518Z,10.07
2023-10-07T01:35:12.388Z,9.80
2023-10-07T01:37:50.030Z,8.75
2023-10-07T01:40:18.646Z,10.40
2023-10-07T01:42:46.672Z,11.43
2023-10-07T01:45:23.821Z,9.73
2023-10-07T01:47:56.942Z,12.77
2023-10-07T01:50:26.046Z,11.83
2023-10-07T01:52:57.493Z,12.20
2023-10-07T01:55:29.540Z,10.75
2023-10-07T01:57:57.875Z,11.02
2023-10-07T02:00:44.369Z,13.55
2023-10-07T02:03:25.195Z,11.88
2023-10-07T02:05:54.170Z,9.48
2023-10-07T02:08:24.737Z,13.93
2023-10-07T02:11:02.189Z,11.48
2023-10-07T02:13:32.988Z,10.15
2023-10-07T02:16:06.834Z,10.07
2023-10-07T02:18:36.942Z,10.30
2023-10-07T02:21:15.073Z,10.60
2023-10-07T02:23:44.957Z,10.98
2023-10-07T02:26:21.275Z,13.65
2023-10-07T02:28:54.775Z,12.93
2023-10-07T02:31:24.994Z,12.10
2023-10-07T02:33:53.810Z,12.90
2023-10-07T02:36:29.710Z,11.13
2023-10-07T02:39:20.358Z,12.00
2023-10-07T02:41:49.288Z,16.73
2023-10-07T02:44:29.638Z,9.63
2023-10-07T02:46:58.197Z,9.82
2023-10-07T02:49:27.488Z,10.77
2023-10-07T02:51:58.541Z,11.45
2023-10-07T02:54:34.532Z,12.07
2023-10-07T02:57:21.331Z,8.77
2023-10-07T02:59:52.504Z,11.02
2023-10-07T03:02:38.372Z,11.27
2023-10-07T03:05:12.972Z,9.18
2023-10-07T03:07:50.869Z,11.77
2023-10-07T03:10:19.966Z,10.32
2023-10-07T03:12:49.990Z,11.20
2023-10-07T03:15:28.137Z,12.20
2023-10-07T03:17:56.926Z,12.32
2023-10-07T03:20:29.694Z,10.98
2023-10-07T03:23:19.200Z,14.27
2023-10-07T03:26:10.091Z,13.00
2023-10-07T03:28:38.692Z,15.13
2023-10-07T03:31:12.451Z,13.98
2023-10-07T03:33:45.433Z,10.80
2023-10-07T03:36:32.329Z,13.57
2023-10-07T03:39:18.890Z,11.70
2023-10-07T03:41:49.582Z,12.00
2023-10-07T03:44:19.345Z,12.90
2023-10-07T03:46:49.819Z,11.15
2023-10-07T03:49:22.444Z,15.77
2023-10-07T03:52:04.737Z,12.23
2023-10-07T03:54:33.042Z,11.40
2023-10-07T03:57:04.270Z,11.45
2023-10-07T03:59:33.539Z,11.82
2023-10-07T04:02:24.471Z,10.52
2023-10-07T04:05:02.293Z,12.50
2023-10-07T04:07:32.759Z,11.52
2023-10-07T04:10:14.262Z,11.00
2023-10-07T04:12:42.172Z,13.00
2023-10-07T04:15:14.542Z,10.45
2023-10-07T04:17:44.742Z,10.95
2023-10-07T04:20:19.955Z,9.82
2023-10-07T04:23:02.352Z,11.95
2023-10-07T04:25:41.212Z,12.13
2023-10-07T04:28:09.345Z,13.68
2023-10-07T04:30:48.952Z,10.45
2023-10-07T04:33:27.095Z,10.27
2023-10-07T04:36:01.704Z,15.63
2023-10-07T04:38:40.612Z,9.90
2023-10-07T04:41:37.944Z,15.00
2023-10-07T04:44:44.228Z,10.27
2023-10-07T04:47:36.326Z,13.10
2023-10-07T04:50:17.055Z,12.02
2023-10-07T04:52:52.104Z,11.38
2023-10-07T04:55:27.727Z,11.85
2023-10-07T04:57:55.740Z,11.63
2023-10-07T05:00:33.338Z,10.52
2023-10-07T05:03:04.347Z,15.65
2023-10-07T05:05:34.795Z,13.55
2023-10-07T05:08:19.422Z,14.32
2023-10-07T05:10:54.726Z,12.07
2023-10-07T05:13:22.976Z,13.00
2023-10-07T05:15:51.142Z,13.80
2023-10-07T05:18:19.109Z,17.90
2023-10-07T05:20:50.071Z,10.75
2023-10-07T05:23:18.994Z,15.50
2023-10-07T05:25:50.707Z,14.35
2023-10-07T05:28:23.074Z,13.07
2023-10-07T05:30:52.794Z,15.35
2023-10-07T05:33:26.175Z,10.95
2023-10-07T05:36:15.255Z,15.00
2023-10-07T05:38:54.498Z,15.05
2023-10-07T05:41:26.560Z,14.50
2023-10-07T05:43:54.567Z,14.57
2023-10-07T05:46:22.555Z,15.90
2023-10-07T05:48:52.661Z,15.25
2023-10-07T05:51:20.549Z,18.15
2023-10-07T05:53:53.002Z,15.75
2023-10-07T05:56:21.230Z,14.75
2023-10-07T05:58:49.938Z,17.80
2023-10-07T06:01:20.145Z,14.55
2023-10-07T06:03:56.810Z,15.43
2023-10-07T06:06:25.786Z,14.77
2023-10-07T06:09:04.901Z,11.82
2023-10-07T06:11:34.106Z,12.68
2023-10-07T06:14:06.021Z,16.52
2023-10-07T06:16:34.944Z,14.23
2023-10-07T06:19:04.268Z,13.98
2023-10-07T06:21:33.466Z,14.88
2023-10-07T06:24:08.871Z,11.55
2023-10-07T06:26:38.273Z,13.13
2023-10-07T06:29:20.368Z,14.05
2023-10-07T06:32:19.350Z,10.57
2023-10-07T06:34:47.950Z,10.60
2023-10-07T06:37:16.484Z,12.18
2023-10-07T06:39:44.865Z,16.10
2023-10-07T06:42:13.193Z,11.02
2023-10-07T06:44:44.794Z,10.52
2023-10-07T06:47:13.916Z,11.80
2023-10-07T06:49:42.231Z,18.17
2023-10-07T06:52:14.129Z,14.88
2023-10-07T06:54:51.968Z,13.90
2023-10-07T06:57:30.960Z,14.50
2023-10-07T06:59:59.563Z,15.77
2023-10-07T07:02:36.377Z,17.38
2023-10-07T07:05:13.140Z,22.20
2023-10-07T07:07:43.316Z,16.88
2023-10-07T07:10:18.035Z,18.23
2023-10-07T07:12:46.633Z,16.67
2023-10-07T07:15:28.177Z,19.15
2023-10-07T07:18:15.394Z,18.73
2023-10-07T07:21:11.352Z,16.13
2023-10-07T07:23:44.751Z,16.63
2023-10-07T07:26:14.266Z,18.73
2023-10-07T07:28:45.550Z,17.67
2023-10-07T07:31:21.281Z,15.85
2023-10-07T07:33:49.958Z,18.52
2023-10-07T07:36:43.422Z,15.95
2023-10-07T07:39:19.269Z,16.08
2023-10-07T07:41:57.527Z,17.92
2023-10-07T07:44:35.341Z,16.73
2023-10-07T07:47:05.000Z,19.83
2023-10-07T07:49:34.750Z,16.70
2023-10-07T07:52:04.357Z,15.13
2023-10-07T07:54:33.111Z,17.65
2023-10-07T07:57:06.102Z,15.77
2023-10-07T07:59:34.844Z,16.30
2023-10-07T08:02:14.400Z,18.48
2023-10-07T08:04:47.622Z,14.55
2023-10-07T08:07:26.135Z,14.52
2023-10-07T08:09:59.408Z,16.27
2023-10-07T08:12:32.893Z,18.52
2023-10-07T08:15:16.413Z,15.90
2023-10-07T08:17:48.202Z,13.52
2023-10-07T08:20:23.796Z,12.70
2023-10-07T08:22:53.643Z,17.10
2023-10-07T08:26:01.601Z,11.63
2023-10-07T08:28:48.758Z,12.43
2023-10-07T08:31:20.164Z,14.93
2023-10-07T08:33:55.643Z,13.80
2023-10-07T08:36:30.826Z,14.20
2023-10-07T08:39:06.377Z,14.40
2023-10-07T08:41:35.063Z,18.42
2023-10-07T08:44:17.132Z,13.98
2023-10-07T08:46:54.250Z,12.02
2023-10-07T08:49:27.262Z,15.80
2023-10-07T08:51:57.052Z,15.25
2023-10-07T08:54:33.518Z,14.80
2023-10-07T08:57:10.603Z,13.25
2023-10-07T08:59:39.502Z,12.77
2023-10-07T09:02:18.661Z,14.55
2023-10-07T09:04:47.393Z,14.90
2023-10-07T09:07:19.692Z,13.45
2023-10-07T09:09:50.380Z,14.23
2023-10-07T09:12:41.027Z,13.23
2023-10-07T09:15:16.116Z,13.30
2023-10-07T09:17:47.116Z,14.63
2023-10-07T09:20:19.479Z,15.13
2023-10-07T09:22:55.274Z,14.90
2023-10-07T09:25:32.830Z,15.32
2023-10-07T09:28:03.406Z,15.35
2023-10-07T09:30:46.820Z,16.20
2023-10-07T09:33:20.806Z,18.95
2023-10-07T09:39:06.959Z,15.10
2023-10-07T09:41:35.947Z,15.85
2023-10-07T09:44:11.362Z,12.80
2023-10-07T09:46:43.074Z,17.55
2023-10-07T09:49:16.146Z,13.50
2023-10-07T09:51:52.429Z,16.20
2023-10-07T09:55:20.382Z,14.10
2023-10-07T09:58:05.612Z,16.00
2023-10-07T10:01:08.294Z,16.35
2023-10-07T10:04:07.550Z,17.38
2023-10-07T10:07:11.966Z,13.45
2023-10-07T10:09:59.310Z,15.93
2023-10-07T10:12:50.416Z,19.33
2023-10-07T10:15:21.927Z,17.42
2023-10-07T10:17:57.245Z,15.85
2023-10-07T10:20:44.500Z,21.95
2023-10-07T10:23:21.418Z,18.55
2023-10-07T10:25:54.747Z,22.35
2023-10-07T10:28:29.468Z,18.75
2023-10-07T10:30:58.059Z,20.20
2023-10-07T10:33:30.107Z,21.55
2023-10-07T10:36:03.008Z,21.73
2023-10-07T10:38:42.460Z,19.60
2023-10-07T10:41:12.396Z,21.33
2023-10-07T10:43:41.305Z,24.40
2023-10-07T10:46:09.907Z,19.15
2023-10-07T10:48:40.545Z,22.45
2023-10-07T10:51:09.748Z,22.08
2023-10-07T10:53:42.721Z,19.42
2023-10-07T10:56:12.476Z,17.83
2023-10-07T10:58:41.121Z,20.83
2023-10-07T11:01:09.643Z,21.48
2023-10-07T11:03:38.934Z,16.88
2023-10-07T11:06:08.018Z,19.38
2023-10-07T11:08:39.082Z,21.38
2023-10-07T11:11:15.905Z,23.67
2023-10-07T11:13:46.052Z,21.92
2023-10-07T11:16:18.201Z,20.63
2023-10-07T11:18:48.913Z,21.17
2023-10-07T11:21:23.074Z,20.75
2023-10-07T11:26:34.238Z,22.90
2023-10-07T11:29:16.279Z,18.83
2023-10-07T11:31:48.257Z,23.67
2023-10-07T11:34:21.387Z,25.92
2023-10-07T11:36:52.325Z,24.67
2023-10-07T11:39:29.972Z,22.83
2023-10-07T11:42:03.210Z,24.08
2023-10-07T11:44:33.392Z,27.73
2023-10-07T11:47:08.637Z,28.50
2023-10-07T11:49:59.264Z,27.95
2023-10-07T11:52:31.086Z,21.92
2023-10-07T11:55:03.116Z,24.73
2023-10-07T11:57:39.372Z,24.10
2023-10-07T12:00:24.768Z,24.75
2023-10-07T12:02:54.482Z,25.45
2023-10-07T12:05:22.770Z,25.75
2023-10-07T12:07:51.192Z,29.38
2023-10-07T12:10:23.588Z,23.58
2023-10-07T12:12:56.516Z,24.40
2023-10-07T12:15:26.808Z,26.77
2023-10-07T12:17:55.639Z,23.60
2023-10-07T12:20:25.753Z,21.58
2023-10-07T12:22:55.009Z,25.67
2023-10-07T12:25:25.195Z,23.25
2023-10-07T12:27:54.680Z,22.25
2023-10-07T12:30:28.137Z,23.20
2023-10-07T12:33:03.818Z,27.73
2023-10-07T12:35:36.540Z,23.52
2023-10-07T12:38:05.441Z,27.33
2023-10-07T12:40:33.789Z,27.13
2023-10-07T12:43:03.084Z,26.00
2023-10-07T12:45:32.466Z,26.05
2023-10-07T12:48:05.236Z,26.23
2023-10-07T12:50:35.177Z,26.60
2023-10-07T12:53:06.129Z,24.05
2023-10-07T12:55:38.655Z,27.40
2023-10-07T12:58:17.363Z,26.70
2023-10-07T13:00:46.066Z,24.25
2023-10-07T13:03:14.806Z,26.33
2023-10-07T13:05:47.091Z,26.58
2023-10-07T13:08:19.246Z,27.42
2023-10-07T13:10:47.882Z,29.70
2023-10-07T13:13:16.782Z,28.00
2023-10-07T13:15:47.358Z,28.73
2023-10-07T13:18:16.710Z,31.45
2023-10-07T13:20:46.083Z,28.65
2023-10-07T13:23:17.848Z,30.70
2023-10-07T13:25:47.669Z,31.98
2023-10-07T13:28:19.024Z,31.42
2023-10-07T13:30:47.810Z,35.20
2023-10-07T13:33:17.337Z,33.00
2023-10-07T13:35:47.238Z,30.90
2023-10-07T13:38:17.271Z,30.40
2023-10-07T13:40:46.294Z,29.27
2023-10-07T13:43:24.818Z,34.58
2023-10-07T13:45:53.873Z,29.65
2023-10-07T13:48:26.205Z,30.50
2023-10-07T13:51:01.779Z,29.25
2023-10-07T13:53:51.464Z,32.47
2023-10-07T13:56:44.974Z,35.05
2023-10-07T13:59:13.915Z,31.98
2023-10-07T14:01:44.086Z,28.75
2023-10-07T14:04:17.020Z,34.53
2023-10-07T14:06:49.648Z,29.88
2023-10-07T14:09:24.165Z,37.13
2023-10-07T14:11:53.590Z,31.50
2023-10-07T14:14:22.661Z,33.20
2023-10-07T14:16:57.478Z,36.13
2023-10-07T14:19:29.798Z,30.75
2023-10-07T14:22:04.009Z,33.97
2023-10-07T14:24:40.917Z,28.73
2023-10-07T14:27:16.847Z,34.95
2023-10-07T14:29:49.895Z,36.65
2023-10-07T14:32:20.162Z,29.90
2023-10-07T14:34:49.595Z,30.70
2023-10-07T14:37:25.595Z,36.30
2023-10-07T14:39:58.478Z,35.42
2023-10-07T14:42:27.167Z,31.92
2023-10-07T14:44:57.188Z,29.75
2023-10-07T14:47:26.320Z,34.67
2023-10-07T14:49:56.397Z,35.97
2023-10-07T14:52:25.292Z,32.35
2023-10-07T14:54:56.204Z,32.38
2023-10-07T14:57:32.775Z,32.13
2023-10-07T15:00:12.291Z,36.65
2023-10-07T15:02:41.679Z,33.25
2023-10-07T15:05:11.728Z,35.17
2023-10-07T15:07:43.375Z,33.50
2023-10-07T15:10:15.126Z,35.40
2023-10-07T15:12:48.784Z,37.45
2023-10-07T15:15:17.260Z,33.42
2023-10-07T15:17:49.171Z,35.63
2023-10-07T15:20:17.819Z,36.83
2023-10-07T15:22:46.404Z,36.70
2023-10-07T15:25:14.668Z,38.35
2023-10-07T15:27:43.682Z,33.28
2023-10-07T15:30:13.523Z,33.13
2023-10-07T15:32:45.846Z,34.58
2023-10-07T15:35:14.388Z,35.63
2023-10-07T15:37:47.011Z,34.55
2023-10-07T15:40:16.363Z,34.45
2023-10-07T15:42:47.199Z,38.97
2023-10-07T15:45:15.728Z,33.97
2023-10-07T15:47:44.187Z,38.58
2023-10-07T15:50:12.658Z,33.90
2023-10-07T15:52:41.183Z,36.35
2023-10-07T15:55:11.513Z,38.75
2023-10-07T15:57:39.937Z,30.58
2023-10-07T16:00:13.076Z,34.60
2023-10-07T16:02:41.716Z,33.95
2023-10-07T16:05:12.227Z,35.08
2023-10-07T16:07:40.574Z,34.33
2023-10-07T16:10:14.256Z,35.10
2023-10-07T16:12:44.140Z,38.88
2023-10-07T16:15:16.073Z,35.33
2023-10-07T16:17:44.460Z,33.78
2023-10-07T16:20:13.133Z,32.92
2023-10-07T16:22:41.898Z,33.97
2023-10-07T16:25:11.405Z,33.45
2023-10-07T16:27:39.891Z,32.13
2023-10-07T16:30:08.890Z,35.03
2023-10-07T16:32:37.708Z,29.02
2023-10-07T16:35:07.481Z,33.65
2023-10-07T16:37:35.913Z,34.30
2023-10-07T16:40:05.526Z,31.23
2023-10-07T16:42:33.856Z,29.60
2023-10-07T16:47:36.024Z,33.30
2023-10-07T16:50:04.963Z,35.70
2023-10-07T16:52:33.474Z,39.55
2023-10-07T16:55:08.404Z,34.42
2023-10-07T16:57:37.445Z,35.17
2023-10-07T17:00:07.000Z,32.03
2023-10-07T17:02:36.176Z,34.92
2023-10-07T17:05:05.117Z,35.17
2023-10-07T17:07:33.581Z,34.83
2023-10-07T17:10:02.412Z,31.10
2023-10-07T17:12:30.850Z,32.10
2023-10-07T17:14:59.376Z,39.67
2023-10-07T17:17:27.984Z,35.97
2023-10-07T17:19:56.442Z,38.15
2023-10-07T17:22:24.987Z,35.47
2023-10-07T17:24:53.746Z,34.80
2023-10-07T17:27:22.661Z,34.60
2023-10-07T17:29:51.807Z,35.25
2023-10-07T17:32:21.008Z,34.40
2023-10-07T17:34:49.815Z,35.13
2023-10-07T17:37:18.185Z,37.25
2023-10-07T17:39:46.904Z,36.63
2023-10-07T17:42:15.570Z,38.65
2023-10-07T17:44:43.863Z,41.25
2023-10-07T17:47:13.621Z,39.58
2023-10-07T17:49:42.262Z,34.28
2023-10-07T17:52:10.758Z,37.40
2023-10-07T17:54:39.335Z,38.33
2023-10-07T17:57:08.276Z,34.75
2023-10-07T17:59:36.921Z,38.08
2023-10-07T18:02:05.398Z,35.85
2023-10-07T18:04:35.861Z,36.97
2023-10-07T18:07:05.057Z,38.95
2023-10-07T18:09:33.699Z,32.42
2023-10-07T18:12:02.083Z,34.67
2023-10-07T18:14:33.879Z,34.38
2023-10-07T18:17:02.475Z,31.35
2023-10-07T18:19:33.362Z,35.10
2023-10-07T18:22:02.094Z,32.70
2023-10-07T18:24:31.499Z,31.52
2023-10-07T18:27:03.417Z,32.72
2023-10-07T18:29:33.031Z,31.90
2023-10-07T18:32:01.716Z,32.45
2023-10-07T18:34:30.390Z,37.70
2023-10-07T18:36:59.092Z,31.92
2023-10-07T18:39:27.776Z,32.70
2023-10-07T18:41:56.250Z,33.38
2023-10-07T18:44:25.153Z,32.20
2023-10-07T18:46:53.724Z,31.90
2023-10-07T18:49:22.163Z,33.00
2023-10-07T18:51:51.328Z,36.13
2023-10-07T18:54:19.688Z,33.75
2023-10-07T18:56:48.417Z,44.63
2023-10-07T18:59:17.710Z,36.13
2023-10-07T19:01:46.514Z,34.45
2023-10-07T19:04:14.968Z,39.92
2023-10-07T19:06:43.424Z,37.33
2023-10-07T19:09:13.946Z,34.05
2023-10-07T19:11:43.014Z,36.80
2023-10-07T19:14:11.558Z,37.13
2023-10-07T19:16:40.273Z,36.83
2023-10-07T19:19:12.037Z,36.80
2023-10-07T19:21:41.066Z,38.67
2023-10-07T19:24:09.558Z,40.70
2023-10-07T19:26:38.110Z,34.70
2023-10-07T19:29:10.774Z,34.97
2023-10-07T19:31:39.203Z,38.83
2023-10-07T19:34:07.853Z,37.88
2023-10-07T19:36:36.513Z,35.63
2023-10-07T19:39:05.533Z,35.38
2023-10-07T19:41:34.352Z,39.17
2023-10-07T19:44:03.113Z,36.95
2023-10-07T19:46:32.074Z,33.95
2023-10-07T19:49:00.631Z,39.53
2023-10-07T19:51:28.940Z,42.00
2023-10-07T19:53:57.424Z,38.15
2023-10-07T19:56:25.931Z,37.28
2023-10-07T19:58:56.026Z,38.53
2023-10-07T20:01:24.609Z,36.92
2023-10-07T20:03:57.033Z,41.33
2023-10-07T20:06:27.353Z,38.25
2023-10-07T20:08:56.757Z,37.40
2023-10-07T20:11:26.500Z,38.95
2023-10-07T20:13:55.311Z,40.05
2023-10-07T20:16:24.283Z,39.20
2023-10-07T20:18:53.772Z,41.63
2023-10-07T20:21:24.241Z,35.60
2023-10-07T20:23:52.738Z,42.28
2023-10-07T20:26:21.975Z,42.33
2023-10-07T20:28:50.645Z,36.83
2023-10-07T20:31:19.973Z,37.08
2023-10-07T20:33:48.485Z,37.97
2023-10-07T20:36:17.170Z,39.25
2023-10-07T20:38:46.512Z,35.67
2023-10-07T20:41:15.286Z,39.47
2023-10-07T20:43:45.142Z,38.25
2023-10-07T20:46:13.539Z,44.85
2023-10-07T20:48:42.487Z,43.75
2023-10-07T20:51:15.880Z,40.63
2023-10-07T20:53:49.053Z,41.30
2023-10-07T20:56:24.239Z,40.50
2023-10-07T20:58:52.665Z,38.30
2023-10-07T21:01:22.754Z,39.50
2023-10-07T21:03:53.209Z,37.53
2023-10-07T21:06:22.847Z,37.63
2023-10-07T21:08:53.075Z,38.88
2023-10-07T21:11:25.204Z,39.05
2023-10-07T21:13:59.313Z,41.22
2023-10-07T21:16:29.238Z,45.10
2023-10-07T21:19:00.284Z,42.05
2023-10-07T21:21:29.216Z,38.75
2023-10-07T21:23:58.012Z,38.92
2023-10-07T21:26:26.671Z,41.97
2023-10-07T21:28:56.720Z,45.88
2023-10-07T21:31:31.882Z,43.50
2023-10-07T21:34:00.382Z,40.25
2023-10-07T21:36:29.749Z,36.10
2023-10-07T21:38:58.117Z,39.85
2023-10-07T21:41:27.324Z,46.50
2023-10-07T21:43:55.538Z,37.20
2023-10-07T21:46:24.036Z,43.38
2023-10-07T21:48:52.448Z,42.35
2023-10-07T21:51:21.313Z,43.28
2023-10-07T21:53:50.540Z,41.45
2023-10-07T21:56:19.034Z,45.10
2023-10-07T21:58:47.345Z,50.00
2023-10-07T22:01:19.105Z,45.55
2023-10-07T22:03:49.722Z,47.35
2023-10-07T22:06:19.536Z,43.97
2023-10-07T22:08:48.602Z,44.17
2023-10-07T22:11:17.293Z,45.72
2023-10-07T22:13:45.734Z,46.90
2023-10-07T22:16:13.701Z,44.63
2023-10-07T22:18:42.578Z,47.80
2023-10-07T22:21:12.672Z,49.28
2023-10-07T22:23:40.830Z,47.72
2023-10-07T22:26:13.342Z,43.65
2023-10-07T22:28:41.442Z,46.95
2023-10-07T22:31:09.619Z,49.50
2023-10-07T22:33:42.980Z,46.70
2023-10-07T22:36:19.520Z,47.20
2023-10-07T22:38:55.045Z,48.33
2023-10-07T22:41:39.391Z,48.15
2023-10-07T22:44:23.472Z,47.35
2023-10-07T22:46:51.876Z,46.78
2023-10-07T22:49:28.039Z,45.70
2023-10-07T22:51:56.696Z,49.08
2023-10-07T22:54:33.913Z,44.92
2023-10-07T22:57:09.068Z,45.75
2023-10-07T22:59:39.892Z,45.63
2023-10-07T23:02:13.771Z,46.72
2023-10-07T23:04:48.846Z,47.75
2023-10-07T23:07:26.460Z,46.63
2023-10-07T23:10:00.487Z,50.35
2023-10-07T23:12:40.347Z,45.47
2023-10-07T23:15:23.990Z,50.50
2023-10-07T23:17:53.349Z,47.78
2023-10-07T23:20:21.463Z,48.60
2023-10-07T23:22:49.397Z,48.00
2023-10-07T23:25:22.978Z,46.38
2023-10-07T23:27:51.339Z,47.53
2023-10-07T23:30:29.415Z,45.03
2023-10-07T23:33:00.587Z,43.80
2023-10-07T23:35:33.411Z,47.90
2023-10-07T23:38:20.054Z,49.05
2023-10-07T23:40:53.533Z,49.22
2023-10-07T23:43:22.670Z,45.67
2023-10-07T23:45:52.849Z,45.60
2023-10-07T23:48:21.141Z,45.78
2023-10-07T23:50:57.750Z,45.95
2023-10-07T23:53:27.656Z,45.15
2023-10-07T23:56:10.337Z,48.30
2023-10-07T23:58:44.766Z,47.17
